Time;durP1;ratioP1;P1;durP2;ratioP2;P2;SDS_P1;SDS_P2;PMS_P1;PMS_P2;Temp;Humidity;BMP_temperature;BMP_pressure;BME280_temperature;BME280_humidity;BME280_pressure;Samples;Min_cycle;Max_cycle;Signal;HPM_P1;HPM_P2
2023/07/11 00:00:04;;;;;;;0.10;0.10;;;16.50;99.90;;;;;;5109638;28;20457;-90
2023/07/11 00:02:30;;;;;;;0.10;0.10;;;16.50;99.90;;;;;;5093305;28;20830;-91
2023/07/11 00:04:58;;;;;;;0.10;0.10;;;16.40;99.90;;;;;;5109112;28;20446;-91
2023/07/11 00:07:23;;;;;;;0.10;0.10;;;16.50;99.90;;;;;;5108584;28;20192;-90
2023/07/11 00:09:49;;;;;;;0.10;0.10;;;16.40;99.90;;;;;;5109512;28;20465;-90
2023/07/11 00:12:16;;;;;;;0.10;0.10;;;16.20;99.90;;;;;;5109411;28;20196;-92
2023/07/11 00:14:42;;;;;;;0.10;0.10;;;16.30;99.90;;;;;;5109662;28;20308;-91
2023/07/11 00:17:08;;;;;;;0.10;0.10;;;16.30;99.90;;;;;;5109232;28;20465;-90
2023/07/11 00:19:49;;;;;;;0.10;0.10;;;16.20;99.90;;;;;;5109622;28;20458;-91
2023/07/11 00:22:16;;;;;;;0.10;0.10;;;16.40;99.90;;;;;;5105369;28;20196;-91
2023/07/11 00:24:41;;;;;;;0.10;0.10;;;16.20;99.90;;;;;;5109559;28;20441;-91
2023/07/11 00:27:07;;;;;;;0.10;0.10;;;16.30;99.90;;;;;;5108537;28;20445;-90
2023/07/11 00:29:33;;;;;;;0.10;0.10;;;16.10;99.90;;;;;;5090652;28;20188;-91
2023/07/11 00:31:58;;;;;;;0.10;0.10;;;16.20;99.90;;;;;;5089652;28;20196;-91
2023/07/11 00:34:24;;;;;;;0.10;0.10;;;16.20;99.90;;;;;;5107327;28;20299;-91
2023/07/11 00:36:49;;;;;;;0.10;0.10;;;16.10;99.90;;;;;;5109371;28;20647;-91
2023/07/11 00:39:16;;;;;;;0.10;0.10;;;15.90;99.90;;;;;;5101673;28;20192;-90
2023/07/11 00:41:42;;;;;;;0.10;0.10;;;15.80;99.90;;;;;;5108736;28;20226;-91
2023/07/11 00:44:16;;;;;;;0.10;0.10;;;15.90;99.90;;;;;;5107559;28;20474;-91
2023/07/11 00:46:42;;;;;;;0.10;0.10;;;15.80;99.90;;;;;;5109630;28;20464;-91
2023/07/11 00:49:10;;;;;;;0.10;0.10;;;16.00;99.90;;;;;;5108642;28;20495;-91
2023/07/11 00:51:42;;;;;;;0.10;0.10;;;16.00;99.90;;;;;;5107914;28;20533;-90
2023/07/11 00:54:13;;;;;;;0.10;0.10;;;15.90;99.90;;;;;;5106950;28;21156;-92
2023/07/11 00:56:45;;;;;;;0.10;0.10;;;16.00;99.90;;;;;;5107013;28;20466;-91
2023/07/11 00:59:14;;;;;;;0.10;0.10;;;16.00;99.90;;;;;;5108857;28;20434;-91
2023/07/11 01:01:40;;;;;;;0.10;0.10;;;16.00;99.90;;;;;;5108047;28;20434;-90
2023/07/11 01:04:06;;;;;;;0.10;0.10;;;16.00;99.90;;;;;;5107882;28;20442;-91
2023/07/11 01:06:33;;;;;;;0.10;0.10;;;15.90;99.90;;;;;;5109973;28;20545;-90
2023/07/11 01:09:00;;;;;;;0.10;0.10;;;15.70;99.90;;;;;;5109201;28;20658;-89
2023/07/11 01:11:29;;;;;;;0.10;0.10;;;15.90;99.90;;;;;;5105165;28;20514;-91
2023/07/11 01:13:56;;;;;;;0.10;0.10;;;15.80;99.90;;;;;;5108436;28;20470;-92
2023/07/11 01:16:21;;;;;;;0.10;0.10;;;15.70;99.90;;;;;;5106320;28;20937;-91
2023/07/11 01:18:48;;;;;;;0.10;0.10;;;15.70;99.90;;;;;;5104857;28;20438;-89
2023/07/11 01:21:19;;;;;;;0.10;0.10;;;15.60;99.90;;;;;;5111284;28;20180;-90
2023/07/11 01:23:44;;;;;;;0.10;0.10;;;15.60;99.90;;;;;;5110049;28;20537;-91
2023/07/11 01:26:11;;;;;;;0.10;0.10;;;15.60;99.90;;;;;;5106494;28;21017;-90
2023/07/11 01:28:38;;;;;;;0.10;0.10;;;15.70;99.90;;;;;;5107676;28;20180;-90
2023/07/11 01:31:04;;;;;;;0.10;0.10;;;15.70;99.90;;;;;;5108446;28;20967;-90
2023/07/11 01:33:30;;;;;;;0.10;0.10;;;15.60;99.90;;;;;;5108752;28;20530;-91
2023/07/11 01:35:56;;;;;;;0.10;0.10;;;15.70;99.90;;;;;;5106559;28;20537;-90
2023/07/11 01:38:23;;;;;;;0.10;0.10;;;15.70;99.90;;;;;;5107079;28;20430;-90
2023/07/11 01:40:48;;;;;;;0.10;0.10;;;15.50;99.90;;;;;;5105973;28;20712;-90
2023/07/11 01:43:16;;;;;;;0.10;0.10;;;15.60;99.90;;;;;;5107277;28;20434;-90
2023/07/11 01:45:41;;;;;;;0.10;0.10;;;15.50;99.90;;;;;;5105305;28;20191;-90
2023/07/11 01:48:07;;;;;;;0.10;0.10;;;15.40;99.90;;;;;;5109812;28;20847;-89
2023/07/11 01:50:33;;;;;;;0.10;0.10;;;15.60;99.90;;;;;;5108529;28;20932;-91
2023/07/11 01:52:58;;;;;;;0.10;0.10;;;15.60;99.90;;;;;;5106651;28;20575;-90
2023/07/11 01:55:25;;;;;;;0.10;0.10;;;15.50;99.90;;;;;;5109800;28;20303;-91
2023/07/11 01:57:50;;;;;;;0.10;0.10;;;15.40;99.90;;;;;;5107378;28;20177;-90
2023/07/11 02:00:16;;;;;;;0.10;0.10;;;15.50;99.90;;;;;;5105125;28;20628;-90
2023/07/11 02:02:42;;;;;;;0.10;0.10;;;15.50;99.90;;;;;;5106910;28;20192;-91
2023/07/11 02:05:08;;;;;;;0.10;0.10;;;15.60;99.90;;;;;;5110628;28;20437;-92
2023/07/11 02:07:33;;;;;;;0.10;0.10;;;15.30;99.90;;;;;;5113221;28;20212;-91
2023/07/11 02:09:59;;;;;;;0.10;0.10;;;15.40;99.90;;;;;;5112303;28;20187;-90
2023/07/11 02:12:24;;;;;;;0.10;0.10;;;15.20;99.90;;;;;;5111840;28;20201;-91
2023/07/11 02:14:50;;;;;;;0.10;0.10;;;15.00;99.90;;;;;;5114062;28;20671;-91
2023/07/11 02:17:16;;;;;;;0.10;0.10;;;;;;;;;;5110321;28;20181;-91
2023/07/11 02:19:44;;;;;;;0.10;0.10;;;15.30;99.90;;;;;;5111620;28;20216;-91
2023/07/11 02:22:11;;;;;;;0.10;0.10;;;;;;;;;;5111080;28;20804;-90
2023/07/11 02:24:39;;;;;;;0.10;0.10;;;14.90;99.90;;;;;;5111780;28;20528;-90
2023/07/11 02:27:05;;;;;;;0.10;0.10;;;15.40;99.90;;;;;;5110835;28;20431;-90
2023/07/11 02:29:31;;;;;;;0.10;0.10;;;15.40;99.90;;;;;;5090766;28;20446;-90
2023/07/11 02:31:57;;;;;;;0.10;0.10;;;15.30;99.90;;;;;;5107825;27;20460;-90
2023/07/11 02:34:22;;;;;;;0.10;0.10;;;15.00;99.90;;;;;;5112745;28;20470;-91
2023/07/11 02:36:48;;;;;;;0.10;0.10;;;15.10;99.90;;;;;;5112962;28;20604;-91
2023/07/11 02:39:14;;;;;;;0.10;0.10;;;15.20;99.90;;;;;;5108130;28;20680;-90
2023/07/11 02:41:39;;;;;;;0.10;0.10;;;15.10;99.90;;;;;;5110691;28;20322;-91
2023/07/11 02:44:06;;;;;;;0.10;0.10;;;14.90;99.90;;;;;;5108879;28;20183;-91
2023/07/11 02:46:31;;;;;;;0.10;0.10;;;15.00;99.90;;;;;;5110979;28;20210;-90
2023/07/11 02:48:57;;;;;;;0.10;0.10;;;14.90;99.90;;;;;;5106827;28;20507;-90
2023/07/11 02:51:24;;;;;;;0.10;0.10;;;;;;;;;;5110418;28;20190;-92
2023/07/11 02:53:50;;;;;;;0.10;0.10;;;14.60;99.90;;;;;;5091459;28;20220;-91
2023/07/11 02:56:17;;;;;;;0.10;0.10;;;14.90;99.90;;;;;;5112174;28;20454;-91
2023/07/11 02:58:44;;;;;;;0.10;0.10;;;14.80;99.90;;;;;;5109053;28;20447;-91
2023/07/11 03:01:09;;;;;;;0.10;0.10;;;14.80;99.90;;;;;;5109107;28;20438;-90
2023/07/11 03:03:35;;;;;;;0.10;0.10;;;14.90;99.90;;;;;;5108854;28;20929;-90
2023/07/11 03:06:00;;;;;;;0.10;0.10;;;14.80;99.90;;;;;;5103016;28;20188;-91
2023/07/11 03:08:26;;;;;;;0.10;0.10;;;14.80;99.90;;;;;;5110004;28;20192;-90
2023/07/11 03:10:52;;;;;;;0.10;0.10;;;14.90;99.90;;;;;;5093858;28;20185;-90
2023/07/11 03:13:18;;;;;;;0.10;0.10;;;14.90;99.90;;;;;;5089857;28;20652;-89
2023/07/11 03:15:44;;;;;;;0.10;0.10;;;14.90;99.90;;;;;;5105556;27;20222;-92
2023/07/11 03:18:12;;;;;;;0.10;0.10;;;14.90;99.90;;;;;;5109749;28;20442;-91
2023/07/11 03:20:38;;;;;;;0.10;0.10;;;14.80;99.90;;;;;;5110992;28;20185;-88
2023/07/11 03:23:04;;;;;;;0.10;0.10;;;14.90;99.90;;;;;;5108587;28;20913;-88
2023/07/11 03:25:30;;;;;;;0.10;0.10;;;14.90;99.90;;;;;;5111950;28;20467;-89
2023/07/11 03:27:55;;;;;;;0.10;0.10;;;14.80;99.90;;;;;;5111968;28;20940;-87
2023/07/11 03:30:21;;;;;;;0.10;0.10;;;14.90;99.90;;;;;;5110288;28;20189;-90
2023/07/11 03:32:46;;;;;;;0.10;0.10;;;15.00;99.90;;;;;;5108443;28;20192;-89
2023/07/11 03:35:12;;;;;;;0.10;0.10;;;14.80;99.90;;;;;;5111658;28;20261;-88
2023/07/11 03:37:37;;;;;;;0.10;0.10;;;15.00;99.90;;;;;;5111059;28;20304;-88
2023/07/11 03:40:03;;;;;;;0.10;0.10;;;15.00;99.90;;;;;;5106736;28;20192;-88
2023/07/11 03:42:29;;;;;;;0.10;0.10;;;14.90;99.90;;;;;;5109376;28;20190;-89
2023/07/11 03:44:55;;;;;;;0.10;0.10;;;14.90;99.90;;;;;;5111439;28;20450;-89
2023/07/11 03:47:20;;;;;;;0.10;0.10;;;14.90;99.90;;;;;;5110127;28;20189;-89
2023/07/11 03:49:46;;;;;;;0.10;0.10;;;15.00;99.90;;;;;;5110646;28;20308;-90
2023/07/11 03:52:11;;;;;;;0.10;0.10;;;15.10;99.90;;;;;;5111327;28;20180;-91
2023/07/11 03:54:37;;;;;;;0.10;0.10;;;15.20;99.90;;;;;;5112444;28;20227;-91
2023/07/11 03:57:02;;;;;;;0.10;0.10;;;15.00;99.90;;;;;;5106259;28;20233;-91
2023/07/11 03:59:28;;;;;;;0.10;0.10;;;15.10;99.90;;;;;;5109395;28;20185;-91
2023/07/11 04:01:53;;;;;;;0.10;0.10;;;15.00;99.90;;;;;;5108857;28;20188;-92
2023/07/11 04:04:19;;;;;;;0.10;0.10;;;15.10;99.90;;;;;;5112076;28;20214;-90
2023/07/11 04:06:45;;;;;;;0.10;0.10;;;15.10;99.90;;;;;;5111066;28;20172;-92
2023/07/11 04:09:10;;;;;;;0.10;0.10;;;15.10;99.90;;;;;;5110042;28;20199;-91
2023/07/11 04:11:36;;;;;;;0.10;0.10;;;15.10;99.90;;;;;;5109582;28;20254;-93
2023/07/11 04:14:01;;;;;;;0.10;0.10;;;15.10;99.90;;;;;;5099948;28;20205;-93
2023/07/11 04:16:27;;;;;;;0.10;0.10;;;15.30;99.90;;;;;;5110383;28;20199;-92
2023/07/11 04:18:53;;;;;;;0.10;0.10;;;15.20;99.90;;;;;;5111135;28;20177;-92
2023/07/11 04:21:18;;;;;;;0.10;0.10;;;15.30;99.90;;;;;;5109178;28;20651;-93
2023/07/11 04:23:44;;;;;;;0.10;0.10;;;15.40;99.90;;;;;;5107070;28;20627;-93
2023/07/11 04:26:09;;;;;;;0.10;0.10;;;15.40;99.90;;;;;;5109981;28;20195;-91
2023/07/11 04:28:35;;;;;;;0.10;0.10;;;15.50;99.90;;;;;;5111114;28;20196;-92
2023/07/11 04:31:01;;;;;;;0.10;0.10;;;15.50;99.90;;;;;;5107770;28;20531;-92
2023/07/11 04:33:27;;;;;;;0.10;0.10;;;15.40;99.90;;;;;;5110394;28;20176;-92
2023/07/11 04:35:53;;;;;;;0.10;0.10;;;15.60;99.90;;;;;;5108615;28;20987;-92
2023/07/11 04:38:18;;;;;;;0.10;0.10;;;15.40;99.90;;;;;;5111961;28;20426;-93
2023/07/11 04:40:45;;;;;;;0.10;0.10;;;15.60;99.90;;;;;;5107102;28;20180;-92
2023/07/11 04:43:10;;;;;;;0.10;0.10;;;15.70;99.90;;;;;;5108924;28;20172;-93
2023/07/11 04:45:36;;;;;;;0.10;0.10;;;15.80;99.90;;;;;;5108326;28;20456;-93
2023/07/11 04:48:02;;;;;;;0.10;0.10;;;16.00;99.90;;;;;;5091459;28;20188;-91
2023/07/11 04:50:28;;;;;;;0.10;0.10;;;16.00;99.90;;;;;;5106885;28;20181;-91
2023/07/11 04:52:53;;;;;;;0.10;0.10;;;16.10;99.90;;;;;;5109777;28;20507;-92
2023/07/11 04:55:19;;;;;;;0.10;0.10;;;16.00;99.90;;;;;;5088624;28;20614;-91
2023/07/11 04:57:44;;;;;;;0.10;0.10;;;16.20;99.90;;;;;;5090416;28;20229;-91
2023/07/11 05:00:11;;;;;;;0.10;0.10;;;16.40;99.90;;;;;;5109698;28;20200;-90
2023/07/11 05:02:36;;;;;;;0.10;0.10;;;16.40;99.90;;;;;;5103098;28;20263;-94
2023/07/11 05:05:02;;;;;;;0.10;0.10;;;16.50;99.90;;;;;;5104324;28;20867;-92
2023/07/11 05:07:28;;;;;;;0.10;0.10;;;16.70;99.90;;;;;;5109329;28;20189;-92
2023/07/11 05:09:53;;;;;;;0.10;0.10;;;16.70;99.90;;;;;;5089351;28;20263;-93
2023/07/11 05:12:21;;;;;;;0.10;0.10;;;16.70;99.90;;;;;;5092205;28;20859;-93
2023/07/11 05:14:47;;;;;;;0.10;0.10;;;;;;;;;;5107338;28;20228;-93
2023/07/11 05:17:12;;;;;;;0.10;0.10;;;16.80;99.90;;;;;;5105229;28;20522;-94
2023/07/11 05:19:38;;;;;;;0.10;0.10;;;16.90;99.90;;;;;;5105849;28;20535;-95
2023/07/11 05:22:06;;;;;;;0.10;0.10;;;16.90;99.90;;;;;;5106852;28;20654;-93
2023/07/11 05:24:32;;;;;;;0.10;0.10;;;17.10;99.90;;;;;;5092388;28;20177;-93
2023/07/11 05:26:57;;;;;;;0.10;0.10;;;17.20;99.90;;;;;;5108750;28;20921;-95
2023/07/11 05:29:24;;;;;;;0.10;0.10;;;17.40;99.90;;;;;;5106243;28;20252;-89
2023/07/11 05:31:49;;;;;;;0.10;0.10;;;17.10;99.90;;;;;;5082403;28;20177;-90
2023/07/11 05:34:15;;;;;;;0.10;0.10;;;17.20;99.90;;;;;;5108093;28;20526;-92
2023/07/11 05:36:40;;;;;;;0.10;0.10;;;17.30;99.90;;;;;;5082480;28;20697;-90
2023/07/11 05:39:10;;;;;;;0.10;0.10;;;17.20;99.90;;;;;;5088780;28;20203;-90
2023/07/11 05:41:37;;;;;;;0.10;0.10;;;17.50;99.90;;;;;;5112286;28;20187;-89
2023/07/11 05:44:03;;;;;;;0.10;0.10;;;17.40;99.90;;;;;;5112884;28;20465;-92
2023/07/11 05:46:29;;;;;;;0.10;0.10;;;17.60;99.90;;;;;;5109914;28;20446;-89
2023/07/11 05:48:56;;;;;;;0.10;0.10;;;17.90;99.90;;;;;;5105602;28;20438;-89
2023/07/11 05:51:23;;;;;;;0.10;0.10;;;18.00;99.90;;;;;;5108220;28;20442;-88
2023/07/11 05:53:49;;;;;;;0.10;0.10;;;18.10;99.90;;;;;;5088298;28;21051;-90
2023/07/11 05:56:16;;;;;;;0.10;0.10;;;18.10;99.90;;;;;;5083624;28;20453;-89
2023/07/11 05:58:45;;;;;;;0.10;0.10;;;;;;;;;;5091874;28;20949;-90
2023/07/11 06:01:16;;;;;;;0.10;0.10;;;18.60;99.90;;;;;;5109233;28;20437;-90
2023/07/11 06:03:45;;;;;;;0.10;0.10;;;18.50;99.90;;;;;;5109693;28;20440;-90
2023/07/11 06:06:12;;;;;;;0.10;0.10;;;18.50;99.90;;;;;;5089481;28;20805;-89
2023/07/11 06:08:38;;;;;;;0.10;0.10;;;18.40;99.90;;;;;;5089020;28;20489;-90
2023/07/11 06:11:05;;;;;;;0.10;0.10;;;18.40;99.90;;;;;;5108705;28;20465;-92
2023/07/11 06:13:33;;;;;;;0.10;0.10;;;18.40;99.90;;;;;;5109675;28;20542;-90
2023/07/11 06:16:05;;;;;;;0.10;0.10;;;18.30;99.90;;;;;;5105782;28;20485;-90
2023/07/11 06:18:34;;;;;;;0.10;0.10;;;18.40;99.90;;;;;;5086625;28;20482;-88
2023/07/11 06:20:59;;;;;;;0.00;0.00;;;18.50;99.90;;;;;;5110918;28;20536;-89
2023/07/11 06:23:25;;;;;;;0.10;0.10;;;18.60;99.90;;;;;;5112825;28;20517;-90
2023/07/11 06:25:51;;;;;;;0.10;0.10;;;18.70;99.90;;;;;;5111725;28;20196;-89
2023/07/11 06:28:16;;;;;;;0.10;0.10;;;18.80;99.90;;;;;;5085620;28;20193;-89
2023/07/11 06:30:43;;;;;;;0.10;0.10;;;18.80;99.90;;;;;;5105355;28;20192;-88
2023/07/11 06:33:10;;;;;;;0.00;0.00;;;18.90;99.90;;;;;;5112532;28;20647;-90
2023/07/11 06:35:36;;;;;;;0.07;0.00;;;18.90;99.90;;;;;;5097231;28;20483;-88
2023/07/11 06:38:02;;;;;;;0.10;0.10;;;18.90;99.90;;;;;;5108116;28;20442;-89
2023/07/11 06:40:28;;;;;;;0.00;0.00;;;19.00;99.90;;;;;;5111113;28;20509;-90
2023/07/11 06:42:53;;;;;;;0.10;0.10;;;18.90;99.90;;;;;;5110266;28;20192;-90
2023/07/11 06:45:19;;;;;;;0.03;0.00;;;19.00;99.90;;;;;;5092333;28;20195;-89
2023/07/11 06:47:44;;;;;;;0.10;0.10;;;19.20;99.90;;;;;;5108788;28;20253;-93
2023/07/11 06:50:10;;;;;;;0.10;0.10;;;19.30;99.90;;;;;;5110316;28;20215;-90
2023/07/11 06:52:35;;;;;;;0.00;0.00;;;19.40;99.90;;;;;;5104063;28;20187;-91
2023/07/11 06:55:01;;;;;;;0.00;0.00;;;19.50;99.90;;;;;;5107413;28;20703;-90
2023/07/11 06:57:27;;;;;;;0.10;0.00;;;;;;;;;;5110029;28;20180;-91
2023/07/11 06:59:53;;;;;;;0.10;0.00;;;19.90;99.90;;;;;;5112049;28;20806;-91
2023/07/11 07:02:19;;;;;;;0.10;0.10;;;;;;;;;;5092129;28;20442;-91
2023/07/11 07:04:44;;;;;;;0.10;0.10;;;20.30;99.90;;;;;;5091132;28;20195;-92
2023/07/11 07:07:10;;;;;;;0.10;0.07;;;20.30;99.90;;;;;;5112616;28;20414;-90
2023/07/11 07:09:35;;;;;;;0.03;0.00;;;20.30;99.90;;;;;;5113610;28;20184;-93
2023/07/11 07:12:01;;;;;;;0.10;0.10;;;20.50;99.90;;;;;;5113961;28;20179;-92
2023/07/11 07:14:26;;;;;;;0.10;0.00;;;20.60;99.90;;;;;;5114220;28;20319;-91
2023/07/11 07:16:52;;;;;;;0.10;0.00;;;20.60;99.90;;;;;;5113657;28;20221;-94
2023/07/11 07:19:18;;;;;;;0.10;0.00;;;;;;;;;;5104329;28;20181;-92
2023/07/11 07:21:43;;;;;;;0.10;0.10;;;21.00;99.90;;;;;;5089360;28;20191;-94
2023/07/11 07:24:11;;;;;;;0.10;0.00;;;21.10;99.90;;;;;;5111848;28;20184;-96
2023/07/11 07:26:37;;;;;;;0.10;0.00;;;21.10;99.90;;;;;;5116280;28;20718;-96
2023/07/11 07:29:03;;;;;;;0.10;0.00;;;21.20;99.90;;;;;;5094949;28;20498;-94
2023/07/11 07:31:29;;;;;;;0.10;0.00;;;21.30;99.90;;;;;;5092825;28;20533;-93
2023/07/11 07:33:55;;;;;;;0.10;0.00;;;;;;;;;;5108013;28;20215;-90
2023/07/11 07:36:20;;;;;;;0.10;0.00;;;21.80;99.90;;;;;;5095228;28;20249;-92
2023/07/11 07:38:47;;;;;;;0.10;0.10;;;21.90;99.90;;;;;;5114440;28;20430;-91
2023/07/11 07:41:13;;;;;;;0.10;0.00;;;21.80;99.90;;;;;;5113113;28;20184;-94
2023/07/11 07:43:45;;;;;;;0.10;0.00;;;21.70;99.90;;;;;;5112104;28;20801;-95
2023/07/11 07:46:16;;;;;;;0.10;0.00;;;21.70;99.90;;;;;;5115058;28;20188;-93
2023/07/11 07:48:41;;;;;;;0.10;0.00;;;21.70;99.90;;;;;;5110088;28;20445;-94
2023/07/11 07:51:12;;;;;;;0.10;0.00;;;21.60;99.90;;;;;;5112947;28;20441;-92
2023/07/11 07:53:38;;;;;;;0.10;0.00;;;21.70;99.90;;;;;;5111739;28;20216;-96
2023/07/11 07:56:09;;;;;;;0.10;0.00;;;21.90;99.90;;;;;;5115569;28;20473;-93
2023/07/11 07:58:34;;;;;;;0.10;0.00;;;21.90;99.90;;;;;;5105056;28;20441;-90
2023/07/11 08:01:00;;;;;;;0.10;0.00;;;22.20;99.90;;;;;;5109776;28;20449;-90
2023/07/11 08:03:26;;;;;;;0.10;0.00;;;22.30;99.90;;;;;;5100867;28;20191;-92
2023/07/11 08:05:55;;;;;;;0.10;0.00;;;22.30;99.90;;;;;;5116895;28;20207;-93
2023/07/11 08:08:21;;;;;;;0.10;0.00;;;22.40;99.90;;;;;;5111144;28;20271;-91
2023/07/11 08:10:47;;;;;;;0.10;0.00;;;22.40;99.90;;;;;;5110818;28;20541;-91
2023/07/11 08:13:12;;;;;;;0.10;0.00;;;22.40;99.90;;;;;;5093757;28;20442;-94
2023/07/11 08:15:38;;;;;;;0.10;0.00;;;22.50;99.90;;;;;;5091502;28;20228;-89
2023/07/11 08:18:03;;;;;;;0.10;0.10;;;22.90;99.90;;;;;;5108681;28;20271;-88
2023/07/11 08:20:29;;;;;;;0.10;0.00;;;23.00;99.90;;;;;;5108742;28;20923;-93
2023/07/11 08:22:54;;;;;;;0.10;0.00;;;23.20;99.90;;;;;;5104962;28;20213;-90
2023/07/11 08:25:20;;;;;;;0.10;0.00;;;23.00;99.90;;;;;;5086810;28;20193;-87
2023/07/11 08:27:46;;;;;;;0.10;0.00;;;23.10;99.90;;;;;;5112254;28;20189;-91
2023/07/11 08:30:11;;;;;;;0.10;0.00;;;23.40;99.90;;;;;;5106320;28;20514;-93
2023/07/11 08:32:38;;;;;;;0.10;0.00;;;23.30;99.90;;;;;;5111840;28;20173;-93
2023/07/11 08:35:05;;;;;;;0.10;0.00;;;23.60;99.90;;;;;;5104641;28;20212;-90
2023/07/11 08:37:31;;;;;;;0.10;0.00;;;23.70;99.90;;;;;;5102423;28;20422;-96
2023/07/11 08:39:56;;;;;;;0.10;0.00;;;24.00;99.90;;;;;;5112036;28;20450;-92
2023/07/11 08:42:32;;;;;;;0.10;0.00;;;24.40;99.90;;;;;;5094915;28;20209;-91
2023/07/11 08:45:05;;;;;;;0.10;0.00;;;24.10;99.90;;;;;;5107609;28;20765;-93
2023/07/11 08:47:36;;;;;;;0.10;0.00;;;24.30;99.90;;;;;;5102540;28;20522;-92
2023/07/11 08:50:04;;;;;;;0.10;0.00;;;24.10;99.90;;;;;;5107348;28;20442;-91
2023/07/11 08:52:33;;;;;;;0.10;0.00;;;24.60;99.90;;;;;;5103107;28;21033;-90
2023/07/11 08:55:21;;;;;;;0.10;0.00;;;24.70;99.90;;;;;;5111902;28;20500;-90
2023/07/11 08:57:53;;;;;;;0.10;0.00;;;24.90;99.90;;;;;;5110451;28;20451;-93
2023/07/11 09:00:19;;;;;;;0.10;0.00;;;25.00;99.90;;;;;;5091989;28;20438;-96
2023/07/11 09:02:54;;;;;;;0.10;0.00;;;25.00;99.90;;;;;;5106337;28;20457;-92
2023/07/11 09:05:57;;;;;;;0.10;0.00;;;24.90;99.90;;;;;;5094301;28;20188;-94
2023/07/11 09:08:23;;;;;;;0.10;0.00;;;25.00;99.90;;;;;;5093034;28;20446;-92
2023/07/11 09:11:03;;;;;;;0.10;0.00;;;25.20;99.90;;;;;;5107045;28;20423;-88
2023/07/11 09:13:54;;;;;;;0.10;0.00;;;25.50;99.90;;;;;;5108822;28;20294;-93
2023/07/11 09:16:46;;;;;;;0.10;0.00;;;25.30;99.90;;;;;;5116825;28;20466;-95
2023/07/11 09:19:38;;;;;;;0.10;0.00;;;25.20;99.90;;;;;;5090730;28;20439;-93
2023/07/11 09:22:21;;;;;;;0.10;0.00;;;25.80;99.90;;;;;;5100215;28;20533;-93
2023/07/11 09:25:07;;;;;;;0.10;0.00;;;25.90;99.90;;;;;;5093600;28;20437;-94
2023/07/11 09:27:34;;;;;;;0.10;0.00;;;26.00;99.90;;;;;;5098077;28;20914;-95
2023/07/11 09:30:05;;;;;;;0.10;0.00;;;25.80;99.90;;;;;;5113059;28;20430;-94
2023/07/11 09:32:34;;;;;;;0.10;0.00;;;25.90;99.90;;;;;;5099114;28;20443;-96
2023/07/11 09:35:24;;;;;;;0.10;0.00;;;26.20;99.90;;;;;;5110178;28;20477;-91
2023/07/11 09:37:55;;;;;;;0.10;0.00;;;26.30;99.90;;;;;;5108550;28;20443;-95
2023/07/11 09:40:36;;;;;;;0.10;0.00;;;26.30;99.90;;;;;;5106238;28;20433;-93
2023/07/11 09:43:03;;;;;;;0.10;0.00;;;26.20;99.90;;;;;;5111531;28;20503;-91
2023/07/11 09:45:38;;;;;;;0.10;0.00;;;26.30;99.90;;;;;;5097924;28;20446;-93
2023/07/11 09:48:12;;;;;;;0.10;0.00;;;26.50;99.90;;;;;;5099705;28;20426;-95
2023/07/11 09:51:00;;;;;;;0.10;0.00;;;26.80;99.90;;;;;;5097516;28;20844;-95
2023/07/11 09:53:28;;;;;;;0.10;0.00;;;26.50;99.90;;;;;;5110870;28;20470;-96
2023/07/11 09:56:02;;;;;;;0.10;0.00;;;26.70;99.90;;;;;;5110626;28;20465;-96
2023/07/11 09:58:31;;;;;;;0.10;0.00;;;26.70;99.90;;;;;;5119428;27;20445;-91
2023/07/11 10:01:00;;;;;;;0.10;0.00;;;26.70;99.90;;;;;;5106903;27;20441;-96
2023/07/11 10:03:28;;;;;;;0.10;0.00;;;26.30;99.90;;;;;;5105205;28;20421;-96
2023/07/11 10:05:54;;;;;;;0.10;0.00;;;26.70;99.90;;;;;;5113903;28;20442;-94
2023/07/11 10:08:23;;;;;;;0.10;0.00;;;27.00;99.90;;;;;;5111666;28;20474;-96
2023/07/11 10:10:51;;;;;;;0.10;0.00;;;27.00;99.90;;;;;;5097877;28;20445;-93
2023/07/11 10:13:18;;;;;;;0.10;0.00;;;27.50;99.90;;;;;;5117266;28;20433;-95
2023/07/11 10:15:48;;;;;;;0.03;0.00;;;27.80;99.90;;;;;;5103255;28;20506;-95
2023/07/11 10:18:25;;;;;;;0.00;0.00;;;27.70;99.90;;;;;;5109377;28;20490;-96
2023/07/11 10:20:55;;;;;;;0.10;0.00;;;27.70;99.90;;;;;;5117619;28;20414;-95
2023/07/11 10:23:24;;;;;;;0.10;0.00;;;27.50;99.90;;;;;;5101779;28;20446;-96
2023/07/11 10:26:26;;;;;;;0.00;0.00;;;27.10;99.90;;;;;;5097215;28;20415;-96
2023/07/11 10:29:00;;;;;;;0.10;0.00;;;27.10;99.90;;;;;;5015545;28;20572;-96
2023/07/11 10:31:50;;;;;;;0.10;0.00;;;27.80;99.90;;;;;;5102084;28;20888;-93
2023/07/11 10:34:19;;;;;;;0.00;0.00;;;27.80;99.90;;;;;;5086043;28;20461;-96
2023/07/11 10:36:51;;;;;;;0.00;0.00;;;27.60;99.90;;;;;;5097674;28;20432;-92
2023/07/11 10:39:32;;;;;;;0.10;0.00;;;27.70;99.90;;;;;;5110352;28;20520;-92
2023/07/11 10:42:03;;;;;;;0.10;0.00;;;28.40;99.90;;;;;;5111068;28;20502;-95
2023/07/11 10:44:34;;;;;;;0.10;0.00;;;28.40;99.90;;;;;;5094065;28;20526;-94
2023/07/11 10:47:01;;;;;;;0.10;0.00;;;28.50;99.90;;;;;;5084455;28;20503;-93
2023/07/11 10:49:35;;;;;;;0.00;0.00;;;29.00;99.90;;;;;;5108417;28;20442;-93
2023/07/11 10:52:23;;;;;;;0.10;0.00;;;29.20;99.90;;;;;;5093888;28;20430;-92
2023/07/11 10:55:16;;;;;;;0.10;0.00;;;29.40;99.90;;;;;;5092857;28;20481;-95
2023/07/11 10:57:46;;;;;;;0.10;0.00;;;29.70;99.90;;;;;;5112347;28;20441;-94
2023/07/11 11:00:17;;;;;;;0.10;0.00;;;30.20;99.90;;;;;;5118598;28;20442;-94
2023/07/11 11:02:45;;;;;;;0.10;0.00;;;29.30;99.90;;;;;;5108107;28;20443;-93
2023/07/11 11:05:24;;;;;;;0.10;0.00;;;29.80;99.90;;;;;;5095138;28;20438;-90
2023/07/11 11:07:56;;;;;;;0.10;0.00;;;29.40;99.90;;;;;;5082192;28;20487;-95
2023/07/11 11:10:50;;;;;;;0.10;0.00;;;29.90;99.90;;;;;;5094148;28;20430;-93
2023/07/11 11:13:22;;;;;;;0.10;0.00;;;30.30;99.90;;;;;;5097161;28;20905;-96
2023/07/11 11:16:13;;;;;;;0.10;0.00;;;29.60;99.90;;;;;;5084772;28;20471;-90
2023/07/11 11:19:03;;;;;;;0.10;0.00;;;29.40;99.90;;;;;;5110656;28;20470;-95
2023/07/11 11:21:39;;;;;;;0.10;0.00;;;29.80;99.90;;;;;;5110194;28;20438;-93
2023/07/11 11:24:16;;;;;;;0.10;0.00;;;30.30;99.60;;;;;;5109461;27;20438;-93
2023/07/11 11:27:18;;;;;;;0.10;0.00;;;30.70;98.80;;;;;;5107114;28;20429;-92
2023/07/11 11:29:56;;;;;;;0.10;0.00;;;30.90;99.90;;;;;;5082424;28;20481;-91
2023/07/11 11:32:39;;;;;;;0.10;0.00;;;30.50;98.10;;;;;;5108195;28;20442;-92
2023/07/11 11:35:23;;;;;;;0.10;0.00;;;30.50;98.60;;;;;;5104642;28;20831;-89
2023/07/11 11:37:57;;;;;;;0.10;0.00;;;30.20;98.20;;;;;;5089327;28;20458;-96
2023/07/11 11:40:26;;;;;;;0.10;0.00;;;30.00;99.90;;;;;;5103097;28;20430;-89
2023/07/11 11:43:13;;;;;;;0.10;0.00;;;30.40;99.90;;;;;;5106823;28;20427;-88
2023/07/11 11:45:41;;;;;;;0.10;0.00;;;30.50;99.90;;;;;;5088815;28;20491;-87
2023/07/11 11:48:19;;;;;;;0.10;0.00;;;30.60;99.90;;;;;;5105444;28;20973;-90
2023/07/11 11:50:46;;;;;;;0.10;0.00;;;30.60;99.90;;;;;;5093735;28;20448;-95
2023/07/11 11:53:33;;;;;;;0.10;0.00;;;31.30;98.00;;;;;;5095910;28;20445;-94
2023/07/11 11:56:00;;;;;;;0.10;0.00;;;31.20;97.20;;;;;;5112398;28;20506;-92
2023/07/11 11:58:29;;;;;;;0.10;0.00;;;30.40;99.90;;;;;;5086715;28;20889;-94
2023/07/11 12:00:56;;;;;;;0.10;0.00;;;31.10;99.90;;;;;;5109986;28;20438;-89
2023/07/11 12:03:33;;;;;;;0.10;0.00;;;31.70;99.90;;;;;;5105709;28;20949;-93
2023/07/11 12:06:03;;;;;;;0.10;0.00;;;31.00;99.90;;;;;;5108738;28;20526;-92
2023/07/11 12:08:37;;;;;;;0.10;0.00;;;32.00;99.90;;;;;;5081594;28;20439;-92
2023/07/11 12:11:08;;;;;;;0.10;0.00;;;32.80;96.70;;;;;;5096261;28;20442;-87
2023/07/11 12:13:39;;;;;;;0.10;0.00;;;32.40;95.10;;;;;;5107716;28;20449;-83
2023/07/11 12:16:20;;;;;;;0.10;0.00;;;32.50;95.40;;;;;;5104320;28;20497;-81
2023/07/11 12:18:51;;;;;;;0.10;0.00;;;32.90;94.50;;;;;;5103741;28;20437;-80
2023/07/11 12:21:19;;;;;;;0.10;0.00;;;32.40;93.60;;;;;;5086388;28;20457;-78
2023/07/11 12:23:51;;;;;;;0.10;0.00;;;32.20;94.40;;;;;;5108636;28;20437;-85
2023/07/11 12:26:21;;;;;;;0.10;0.00;;;31.80;95.30;;;;;;5106017;28;20584;-83
2023/07/11 12:28:48;;;;;;;0.00;0.00;;;32.30;94.30;;;;;;5100399;28;21037;-87
2023/07/11 12:31:24;;;;;;;0.10;0.00;;;31.30;94.50;;;;;;5094855;28;20461;-85
2023/07/11 12:34:14;;;;;;;0.10;0.00;;;31.70;99.90;;;;;;5084848;28;20864;-86
2023/07/11 12:37:00;;;;;;;0.10;0.00;;;32.50;99.90;;;;;;5108683;28;20987;-89
2023/07/11 12:39:31;;;;;;;0.10;0.00;;;32.80;99.90;;;;;;5097578;28;20847;-86
2023/07/11 12:42:29;;;;;;;0.10;0.00;;;32.60;98.10;;;;;;5092165;27;21200;-85
2023/07/11 12:44:55;;;;;;;0.10;0.00;;;32.40;99.40;;;;;;5097405;28;20797;-88
2023/07/11 12:47:23;;;;;;;0.10;0.00;;;33.30;99.80;;;;;;5107291;28;20446;-83
2023/07/11 12:49:50;;;;;;;0.10;0.00;;;33.10;92.50;;;;;;5091432;28;20196;-84
2023/07/11 12:52:19;;;;;;;0.10;0.00;;;33.00;94.00;;;;;;5104751;28;20438;-85
2023/07/11 12:54:45;;;;;;;0.10;0.00;;;;;;;;;;5104261;28;20489;-86
2023/07/11 12:57:26;;;;;;;0.10;0.00;;;32.40;88.50;;;;;;5102138;28;20462;-84
2023/07/11 12:59:52;;;;;;;0.10;0.00;;;;;;;;;;5104906;28;20473;-83